Time;durP1;ratioP1;P1;durP2;ratioP2;P2;SDS_P1;SDS_P2;PMS_P1;PMS_P2;Temp;Humidity;BMP_temperature;BMP_pressure;BME280_temperature;BME280_humidity;BME280_pressure;Samples;Min_cycle;Max_cycle;Signal;HPM_P1;HPM_P2
2021/09/12 00:01:37;;;;;;;41.20;26.98;;;;;;;;;;5061055;28;20064;-77
2021/09/12 00:04:03;;;;;;;41.53;26.98;;;;;;;;;;5060652;28;20098;-77
2021/09/12 00:06:30;;;;;;;46.85;26.85;;;;;;;;;;5060558;28;20234;-77
2021/09/12 00:08:56;;;;;;;41.83;25.70;;;;;;;;;;5059264;28;20049;-77
2021/09/12 00:11:22;;;;;;;46.47;25.88;;;;;;;;;;5058377;28;20055;-77
2021/09/12 00:13:49;;;;;;;42.92;24.98;;;;;;;;;;5060884;28;20064;-77
2021/09/12 00:16:15;;;;;;;42.22;25.98;;;;;;;;;;5060791;28;20083;-77
2021/09/12 00:18:41;;;;;;;38.67;25.45;;;;;;;;;;5062305;28;20044;-78
2021/09/12 00:21:08;;;;;;;41.40;24.70;;;;;;;;;;5069711;28;20081;-77
2021/09/12 00:23:34;;;;;;;37.10;23.70;;;;;;;;;;5072718;28;20064;-77
2021/09/12 00:26:00;;;;;;;37.10;23.95;;;;;;;;;;5059897;28;20091;-77
2021/09/12 00:28:27;;;;;;;43.13;25.48;;;;;;;;;;5059660;28;20084;-77
2021/09/12 00:30:53;;;;;;;39.60;24.67;;;;;;;;;;5059606;28;20036;-77
2021/09/12 00:33:19;;;;;;;41.17;26.02;;;;;;;;;;5059836;28;20406;-77
2021/09/12 00:35:47;;;;;;;45.63;24.13;;;;;;;;;;5056117;28;20052;-78
2021/09/12 00:38:13;;;;;;;47.65;25.50;;;;;;;;;;5057364;28;20071;-77
2021/09/12 00:40:39;;;;;;;41.25;26.17;;;;;;;;;;5069152;28;20048;-77
2021/09/12 00:43:06;;;;;;;37.78;23.10;;;;;;;;;;5065635;28;20070;-77
2021/09/12 00:45:32;;;;;;;41.92;24.77;;;;;;;;;;5067585;28;20037;-77
2021/09/12 00:47:59;;;;;;;40.17;24.25;;;;;;;;;;5057928;28;20048;-77
2021/09/12 00:50:25;;;;;;;38.83;24.52;;;;;;;;;;5055838;28;20099;-78
2021/09/12 00:52:52;;;;;;;42.50;24.23;;;;;;;;;;5058684;28;20052;-77
2021/09/12 00:55:18;;;;;;;39.60;24.38;;;;;;;;;;5059277;28;20486;-77
2021/09/12 00:57:45;;;;;;;39.83;24.52;;;;;;;;;;5062085;28;20040;-77
2021/09/12 01:00:13;;;;;;;38.88;23.90;;;;;;;;;;5069014;28;20041;-77
2021/09/12 01:02:39;;;;;;;37.70;22.20;;;;;;;;;;5071348;28;20051;-77
2021/09/12 01:05:07;;;;;;;39.72;25.40;;;;;;;;;;5059790;28;20045;-77
2021/09/12 01:07:33;;;;;;;45.05;24.70;;;;;;;;;;5068492;28;20049;-77
2021/09/12 01:09:59;;;;;;;38.63;25.02;;;;;;;;;;5063867;28;20479;-77
2021/09/12 01:12:26;;;;;;;41.95;25.88;;;;;;;;;;5059928;28;20091;-77
2021/09/12 01:14:54;;;;;;;39.30;24.80;;;;;;;;;;5057342;28;20136;-77
2021/09/12 01:17:25;;;;;;;39.47;23.35;;;;;;;;;;5057038;28;20124;-77
2021/09/12 01:19:52;;;;;;;43.08;24.10;;;;;;;;;;5058237;28;20081;-77
2021/09/12 01:22:18;;;;;;;39.08;22.77;;;;;;;;;;5059694;28;20053;-77
2021/09/12 01:24:44;;;;;;;38.10;23.15;;;;;;;;;;5059550;28;20490;-77
2021/09/12 01:27:11;;;;;;;35.20;22.67;;;;;;;;;;5059823;28;20118;-77
2021/09/12 01:29:37;;;;;;;37.33;22.42;;;;;;;;;;5055483;28;20052;-77
2021/09/12 01:32:04;;;;;;;36.75;23.73;;;;;;;;;;5070439;28;20045;-77
2021/09/12 01:34:30;;;;;;;41.25;24.05;;;;;;;;;;5059877;28;20048;-77
2021/09/12 01:36:57;;;;;;;32.28;21.55;;;;;;;;;;5063048;28;20080;-77
2021/09/12 01:39:23;;;;;;;35.97;22.63;;;;;;;;;;5069092;28;20452;-77
2021/09/12 01:41:49;;;;;;;37.42;22.90;;;;;;;;;;5056592;28;20052;-78
2021/09/12 01:44:22;;;;;;;37.25;22.20;;;;;;;;;;5056844;28;20094;-77
2021/09/12 01:46:48;;;;;;;39.50;23.75;;;;;;;;;;5058678;28;20041;-77
2021/09/12 01:49:16;;;;;;;40.47;23.15;;;;;;;;;;5059196;28;20045;-77
2021/09/12 01:51:42;;;;;;;35.85;22.25;;;;;;;;;;5059198;28;20097;-77
2021/09/12 01:54:09;;;;;;;36.38;22.10;;;;;;;;;;5058948;28;20157;-77
2021/09/12 01:56:35;;;;;;;40.47;22.90;;;;;;;;;;5055141;28;20076;-77
2021/09/12 01:59:02;;;;;;;36.63;22.83;;;;;;;;;;5058827;28;20076;-77
2021/09/12 02:01:28;;;;;;;40.25;22.52;;;;;;;;;;5058727;28;20127;-77
2021/09/12 02:03:55;;;;;;;36.13;21.52;;;;;;;;;;5058978;28;20073;-77
2021/09/12 02:06:21;;;;;;;34.25;21.10;;;;;;;;;;5059262;28;20138;-77
2021/09/12 02:08:47;;;;;;;35.55;21.23;;;;;;;;;;5055378;28;20044;-77
2021/09/12 02:11:14;;;;;;;37.13;21.15;;;;;;;;;;5055520;28;20049;-77
2021/09/12 02:13:40;;;;;;;41.63;23.25;;;;;;;;;;5068775;28;20062;-77
2021/09/12 02:16:07;;;;;;;32.65;21.15;;;;;;;;;;5061894;28;20406;-77
2021/09/12 02:18:34;;;;;;;35.72;21.65;;;;;;;;;;5058916;28;20512;-77
2021/09/12 02:21:00;;;;;;;32.38;20.77;;;;;;;;;;5056634;28;20048;-77
2021/09/12 02:23:26;;;;;;;37.72;22.08;;;;;;;;;;5055295;28;20132;-77
2021/09/12 02:25:53;;;;;;;38.03;22.17;;;;;;;;;;5058263;28;20075;-77
2021/09/12 02:28:20;;;;;;;37.75;21.48;;;;;;;;;;5058324;28;20128;-78
2021/09/12 02:30:46;;;;;;;46.67;22.52;;;;;;;;;;5058081;28;20115;-77
2021/09/12 02:33:13;;;;;;;36.38;21.25;;;;;;;;;;5058365;28;20044;-77
2021/09/12 02:35:39;;;;;;;35.50;21.25;;;;;;;;;;5053993;28;20127;-76
2021/09/12 02:38:05;;;;;;;42.88;23.85;;;;;;;;;;5057765;28;20584;-77
2021/09/12 02:40:32;;;;;;;36.80;21.40;;;;;;;;;;5058284;28;20083;-77
2021/09/12 02:42:58;;;;;;;37.20;22.27;;;;;;;;;;5058180;28;20045;-77
2021/09/12 02:45:25;;;;;;;33.05;20.40;;;;;;;;;;5058073;28;20044;-77
2021/09/12 02:47:51;;;;;;;35.22;20.25;;;;;;;;;;5055521;28;20069;-77
2021/09/12 02:50:17;;;;;;;38.42;21.55;;;;;;;;;;5055514;28;20048;-78
2021/09/12 02:52:44;;;;;;;30.60;19.60;;;;;;;;;;5057949;28;20528;-77
2021/09/12 02:55:10;;;;;;;36.55;21.38;;;;;;;;;;5063403;28;20537;-77
2021/09/12 02:57:37;;;;;;;34.03;20.58;;;;;;;;;;5065841;28;20049;-77
2021/09/12 03:00:04;;;;;;;47.35;22.15;;;;;;;;;;5056712;28;20540;-77
2021/09/12 03:02:30;;;;;;;32.90;20.38;;;;;;;;;;5054188;28;20083;-77
2021/09/12 03:04:57;;;;;;;33.90;20.90;;;;;;;;;;5057410;28;20056;-77
2021/09/12 03:07:23;;;;;;;36.03;20.00;;;;;;;;;;5057679;28;20041;-77
2021/09/12 03:09:49;;;;;;;35.85;21.52;;;;;;;;;;5057804;28;20064;-77
2021/09/12 03:12:16;;;;;;;36.70;20.73;;;;;;;;;;5057758;28;20437;-77
2021/09/12 03:14:42;;;;;;;30.67;20.00;;;;;;;;;;5052932;28;20490;-77
2021/09/12 03:17:09;;;;;;;33.28;20.13;;;;;;;;;;5056203;28;20068;-77
2021/09/12 03:19:35;;;;;;;36.35;20.88;;;;;;;;;;5057082;28;20052;-75
2021/09/12 03:22:01;;;;;;;37.13;21.08;;;;;;;;;;5056903;28;20114;-77
2021/09/12 03:24:28;;;;;;;29.02;18.40;;;;;;;;;;5057451;28;20079;-77
2021/09/12 03:26:54;;;;;;;37.78;19.73;;;;;;;;;;5054631;28;20049;-77
2021/09/12 03:29:20;;;;;;;37.50;19.48;;;;;;;;;;5054296;28;20498;-77
2021/09/12 03:31:47;;;;;;;28.23;19.25;;;;;;;;;;5059166;28;20498;-77
2021/09/12 03:34:13;;;;;;;35.80;19.48;;;;;;;;;;5065247;28;20083;-77
2021/09/12 03:36:39;;;;;;;36.05;21.42;;;;;;;;;;5064585;28;20062;-77
2021/09/12 03:39:06;;;;;;;35.22;20.10;;;;;;;;;;5056831;28;20098;-75
2021/09/12 03:41:32;;;;;;;35.58;21.20;;;;;;;;;;5053529;28;20048;-77
2021/09/12 03:43:59;;;;;;;35.42;19.52;;;;;;;;;;5056721;28;20048;-77
2021/09/12 03:46:25;;;;;;;37.05;21.92;;;;;;;;;;5058900;28;20049;-77
2021/09/12 03:48:52;;;;;;;36.65;20.55;;;;;;;;;;5057265;28;20043;-77
2021/09/12 03:51:18;;;;;;;33.70;19.75;;;;;;;;;;5057405;28;20107;-77
2021/09/12 03:53:45;;;;;;;37.88;21.75;;;;;;;;;;5053147;28;20122;-77
2021/09/12 03:56:13;;;;;;;38.13;21.13;;;;;;;;;;5055405;28;20048;-77
2021/09/12 03:58:39;;;;;;;31.27;19.98;;;;;;;;;;5057405;28;20102;-77
2021/09/12 04:01:05;;;;;;;37.10;20.42;;;;;;;;;;5057075;28;20056;-77
2021/09/12 04:03:32;;;;;;;39.40;21.17;;;;;;;;;;5057254;28;20128;-77
2021/09/12 04:05:58;;;;;;;37.92;22.63;;;;;;;;;;5055492;28;20088;-77
2021/09/12 04:08:24;;;;;;;37.13;20.15;;;;;;;;;;5054245;28;20448;-77
2021/09/12 04:10:51;;;;;;;41.80;22.75;;;;;;;;;;5063813;28;20557;-77
2021/09/12 04:13:17;;;;;;;44.88;21.08;;;;;;;;;;5057737;28;20048;-76
2021/09/12 04:15:43;;;;;;;38.42;20.58;;;;;;;;;;5059765;28;20072;-77
2021/09/12 04:18:10;;;;;;;37.85;22.35;;;;;;;;;;5068461;28;20032;-77
2021/09/12 04:20:36;;;;;;;34.90;21.33;;;;;;;;;;5052862;28;20053;-77
2021/09/12 04:23:02;;;;;;;35.58;20.48;;;;;;;;;;5056626;28;20076;-77
2021/09/12 04:25:29;;;;;;;38.95;21.10;;;;;;;;;;5056622;28;20045;-77
2021/09/12 04:27:55;;;;;;;39.30;22.02;;;;;;;;;;5056674;28;20044;-77
2021/09/12 04:30:22;;;;;;;35.80;19.58;;;;;;;;;;5056756;28;20045;-77
2021/09/12 04:32:49;;;;;;;37.25;20.75;;;;;;;;;;5062473;28;20102;-76
2021/09/12 04:35:15;;;;;;;36.83;20.05;;;;;;;;;;5054420;28;20051;-77
2021/09/12 04:37:42;;;;;;;35.30;20.05;;;;;;;;;;5057115;28;21197;-77
2021/09/12 04:40:08;;;;;;;37.33;18.85;;;;;;;;;;5058125;28;20113;-77
2021/09/12 04:42:35;;;;;;;44.13;22.23;;;;;;;;;;5057733;28;20036;-76
2021/09/12 04:45:01;;;;;;;36.50;21.88;;;;;;;;;;5059048;28;20068;-77
2021/09/12 04:47:27;;;;;;;38.50;20.73;;;;;;;;;;5057252;28;20049;-77
2021/09/12 04:49:54;;;;;;;37.60;21.65;;;;;;;;;;5060126;28;20056;-77
2021/09/12 04:52:20;;;;;;;42.55;21.77;;;;;;;;;;5067116;28;20041;-77
2021/09/12 04:54:46;;;;;;;42.72;21.23;;;;;;;;;;5066630;28;20055;-77
2021/09/12 04:57:13;;;;;;;42.80;21.23;;;;;;;;;;5060224;28;20044;-77
2021/09/12 04:59:39;;;;;;;47.63;22.58;;;;;;;;;;5071833;28;20210;-77
2021/09/12 05:02:05;;;;;;;36.80;20.35;;;;;;;;;;5072856;28;20052;-77
2021/09/12 05:04:32;;;;;;;44.00;21.23;;;;;;;;;;5060353;28;20049;-77
2021/09/12 05:06:58;;;;;;;40.95;21.55;;;;;;;;;;5059874;28;20045;-77
2021/09/12 05:09:24;;;;;;;41.28;21.00;;;;;;;;;;5058719;28;20047;-77
2021/09/12 05:11:51;;;;;;;41.92;22.42;;;;;;;;;;5059465;28;20044;-77
2021/09/12 05:14:18;;;;;;;51.22;23.30;;;;;;;;;;5057291;28;20052;-77
2021/09/12 05:16:44;;;;;;;42.22;23.75;;;;;;;;;;5059965;28;20106;-77
2021/09/12 05:19:10;;;;;;;47.35;22.95;;;;;;;;;;5061504;28;20049;-77
2021/09/12 05:21:36;;;;;;;61.33;24.10;;;;;;;;;;5057051;28;20091;-77
2021/09/12 05:24:03;;;;;;;49.78;25.15;;;;;;;;;;5058407;28;20041;-77
2021/09/12 05:26:29;;;;;;;52.28;24.30;;;;;;;;;;5056091;28;20076;-77
2021/09/12 05:28:56;;;;;;;51.47;24.02;;;;;;;;;;5059365;28;20053;-77
2021/09/12 05:31:22;;;;;;;56.08;27.13;;;;;;;;;;5056921;28;20044;-76
2021/09/12 05:33:48;;;;;;;59.05;26.50;;;;;;;;;;5062120;28;20040;-77
2021/09/12 05:36:15;;;;;;;63.63;28.40;;;;;;;;;;5070201;28;20075;-77
2021/09/12 05:38:41;;;;;;;59.35;27.23;;;;;;;;;;5057224;28;20041;-68
2021/09/12 05:41:07;;;;;;;77.78;29.92;;;;;;;;;;5070735;28;20051;-70
2021/09/12 05:43:34;;;;;;;77.22;30.13;;;;;;;;;;5068381;28;20064;-70
2021/09/12 05:46:00;;;;;;;77.75;29.95;;;;;;;;;;5069349;28;20040;-70
2021/09/12 05:48:26;;;;;;;73.43;31.65;;;;;;;;;;5069920;28;20033;-70
2021/09/12 05:50:53;;;;;;;85.50;32.38;;;;;;;;;;5071665;28;20048;-70
2021/09/12 05:53:20;;;;;;;98.60;31.65;;;;;;;;;;5067677;28;20040;-70
2021/09/12 05:55:47;;;;;;;71.78;29.08;;;;;;;;;;5063170;28;20052;-71
2021/09/12 05:58:14;;;;;;;87.18;32.45;;;;;;;;;;5067362;28;20047;-70
2021/09/12 06:00:40;;;;;;;79.65;32.35;;;;;;;;;;5066180;28;20051;-70
2021/09/12 06:03:06;;;;;;;86.20;34.78;;;;;;;;;;5067968;28;20066;-70
2021/09/12 06:05:33;;;;;;;86.80;34.05;;;;;;;;;;5068053;28;20593;-71
2021/09/12 06:08:00;;;;;;;89.13;35.17;;;;;;;;;;5068414;28;20117;-70
2021/09/12 06:10:26;;;;;;;68.18;30.48;;;;;;;;;;5065050;28;20040;-70
2021/09/12 06:12:52;;;;;;;67.10;31.00;;;;;;;;;;5063470;28;20056;-70
2021/09/12 06:15:19;;;;;;;56.88;27.55;;;;;;;;;;5057528;28;20036;-69
2021/09/12 06:17:45;;;;;;;53.72;27.95;;;;;;;;;;5053100;28;20044;-70
2021/09/12 06:20:12;;;;;;;51.65;27.13;;;;;;;;;;5068018;28;20080;-69
2021/09/12 06:22:42;;;;;;;46.13;26.67;;;;;;;;;;5067351;28;20432;-70
2021/09/12 06:25:08;;;;;;;50.45;25.80;;;;;;;;;;5067793;28;20557;-70
2021/09/12 06:27:35;;;;;;;50.38;27.23;;;;;;;;;;5066074;28;20134;-70
2021/09/12 06:30:01;;;;;;;46.33;26.27;;;;;;;;;;5063656;28;20155;-70
2021/09/12 06:32:27;;;;;;;47.03;26.42;;;;;;;;;;5066631;28;20135;-70
2021/09/12 06:34:54;;;;;;;39.97;24.05;;;;;;;;;;5063530;28;20526;-70
2021/09/12 06:37:20;;;;;;;42.63;22.40;;;;;;;;;;5063409;28;20041;-70
2021/09/12 06:39:46;;;;;;;38.85;23.73;;;;;;;;;;5064179;28;20048;-70
2021/09/12 06:42:13;;;;;;;38.95;23.05;;;;;;;;;;5059593;28;20495;-70
2021/09/12 06:44:39;;;;;;;40.33;25.05;;;;;;;;;;5064054;28;20047;-70
2021/09/12 06:47:06;;;;;;;38.35;22.70;;;;;;;;;;5066049;28;20045;-70
2021/09/12 06:49:32;;;;;;;37.15;22.00;;;;;;;;;;5066267;28;20060;-70
2021/09/12 06:52:00;;;;;;;37.22;21.45;;;;;;;;;;5066154;28;20110;-71
2021/09/12 06:54:28;;;;;;;34.20;21.00;;;;;;;;;;5064490;28;20080;-70
2021/09/12 06:56:54;;;;;;;34.22;21.98;;;;;;;;;;5067589;28;20072;-71
2021/09/12 06:59:21;;;;;;;38.30;22.83;;;;;;;;;;5068431;28;20053;-70
2021/09/12 07:01:47;;;;;;;46.42;25.88;;;;;;;;;;5064321;28;20076;-71
2021/09/12 07:04:13;;;;;;;44.65;24.27;;;;;;;;;;5065643;28;20587;-70
2021/09/12 07:06:40;;;;;;;45.95;23.45;;;;;;;;;;5065738;28;20040;-71
2021/09/12 07:09:07;;;;;;;48.33;23.50;;;;;;;;;;5067396;28;20125;-71
2021/09/12 07:11:33;;;;;;;43.20;23.27;;;;;;;;;;5065637;28;20075;-71
2021/09/12 07:13:59;;;;;;;42.15;22.38;;;;;;;;;;5069818;28;20044;-70
2021/09/12 07:16:26;;;;;;;44.58;24.95;;;;;;;;;;5065686;28;20051;-71
2021/09/12 07:18:52;;;;;;;42.65;23.95;;;;;;;;;;5065288;28;20083;-71
2021/09/12 07:21:19;;;;;;;43.70;23.20;;;;;;;;;;5065347;28;20454;-71
2021/09/12 07:23:45;;;;;;;40.85;22.02;;;;;;;;;;5067071;28;20124;-70
2021/09/12 07:26:12;;;;;;;37.13;20.95;;;;;;;;;;5069257;28;20048;-71
2021/09/12 07:28:38;;;;;;;34.65;19.30;;;;;;;;;;5067647;28;20518;-70
2021/09/12 07:31:05;;;;;;;31.77;18.13;;;;;;;;;;5065807;28;20444;-70
2021/09/12 07:33:31;;;;;;;32.85;20.05;;;;;;;;;;5065034;28;20090;-71
2021/09/12 07:35:57;;;;;;;35.25;20.67;;;;;;;;;;5067471;28;20047;-70
2021/09/12 07:38:24;;;;;;;33.03;20.92;;;;;;;;;;5067501;28;20082;-71
2021/09/12 07:40:50;;;;;;;33.70;20.35;;;;;;;;;;5067748;28;20129;-71
2021/09/12 07:43:17;;;;;;;29.40;18.65;;;;;;;;;;5065827;28;20072;-71
2021/09/12 07:45:43;;;;;;;28.38;19.40;;;;;;;;;;5065543;28;20052;-71
2021/09/12 07:48:10;;;;;;;28.52;18.40;;;;;;;;;;5067552;28;20098;-71
2021/09/12 07:50:36;;;;;;;29.33;18.70;;;;;;;;;;5066140;28;20155;-71
2021/09/12 07:53:03;;;;;;;28.73;18.67;;;;;;;;;;5065974;28;20044;-71
2021/09/12 07:55:29;;;;;;;24.65;17.45;;;;;;;;;;5064900;28;20076;-71
2021/09/12 07:57:56;;;;;;;34.33;16.77;;;;;;;;;;5065124;28;20471;-71
2021/09/12 08:00:22;;;;;;;26.70;17.65;;;;;;;;;;5066374;28;20113;-71
2021/09/12 08:02:49;;;;;;;26.05;17.10;;;;;;;;;;5066324;28;20080;-70
2021/09/12 08:05:17;;;;;;;26.20;17.20;;;;;;;;;;5065011;28;20075;-70
2021/09/12 08:07:43;;;;;;;25.50;16.45;;;;;;;;;;5070970;28;20417;-71
2021/09/12 08:10:10;;;;;;;22.05;16.02;;;;;;;;;;5066639;28;20056;-71
2021/09/12 08:12:36;;;;;;;23.85;15.35;;;;;;;;;;5065920;28;20259;-71
2021/09/12 08:15:03;;;;;;;21.52;15.20;;;;;;;;;;5054976;28;20068;-71
2021/09/12 08:17:29;;;;;;;20.25;14.52;;;;;;;;;;5060318;28;20152;-71
2021/09/12 08:19:56;;;;;;;22.33;15.40;;;;;;;;;;5069784;28;20048;-71
2021/09/12 08:22:22;;;;;;;24.65;16.48;;;;;;;;;;5070830;28;20036;-71
2021/09/12 08:24:48;;;;;;;21.83;15.45;;;;;;;;;;5072753;28;20510;-71
2021/09/12 08:27:15;;;;;;;23.70;14.55;;;;;;;;;;5069976;28;20063;-70
2021/09/12 08:29:41;;;;;;;20.60;13.48;;;;;;;;;;5071928;28;20098;-68
2021/09/12 08:32:08;;;;;;;21.85;14.65;;;;;;;;;;5071882;28;20091;-69
2021/09/12 08:34:35;;;;;;;21.65;15.38;;;;;;;;;;5072704;28;20048;-68
2021/09/12 08:37:02;;;;;;;21.95;14.27;;;;;;;;;;5073074;28;20048;-70
2021/09/12 08:39:28;;;;;;;23.10;14.43;;;;;;;;;;5073106;28;20446;-71
2021/09/12 08:41:55;;;;;;;21.75;14.65;;;;;;;;;;5071005;28;20040;-71
2021/09/12 08:44:21;;;;;;;22.98;15.80;;;;;;;;;;5060295;28;20175;-71
2021/09/12 08:46:48;;;;;;;19.35;14.25;;;;;;;;;;5070076;28;20496;-70
2021/09/12 08:49:17;;;;;;;22.10;14.27;;;;;;;;;;5065276;28;20695;-71
2021/09/12 08:51:44;;;;;;;17.50;11.80;;;;;;;;;;5069490;28;20041;-71
2021/09/12 08:54:11;;;;;;;18.88;13.18;;;;;;;;;;5063745;28;20059;-72
2021/09/12 08:56:37;;;;;;;18.60;12.95;;;;;;;;;;5065316;28;20049;-71
2021/09/12 08:59:03;;;;;;;15.90;11.90;;;;;;;;;;5071664;28;20123;-71
2021/09/12 09:01:33;;;;;;;19.02;12.75;;;;;;;;;;5067343;28;20075;-71
2021/09/12 09:04:01;;;;;;;19.83;13.10;;;;;;;;;;5066542;28;20041;-70
2021/09/12 09:06:33;;;;;;;19.27;12.55;;;;;;;;;;5068616;28;20048;-71
2021/09/12 09:09:00;;;;;;;19.52;12.32;;;;;;;;;;5068202;28;20098;-70
2021/09/12 09:11:36;;;;;;;16.83;11.80;;;;;;;;;;5064222;28;20039;-72
2021/09/12 09:14:16;;;;;;;15.30;11.45;;;;;;;;;;5064003;28;20049;-71
2021/09/12 09:16:43;;;;;;;22.52;13.52;;;;;;;;;;5063709;28;20041;-71
2021/09/12 09:19:10;;;;;;;16.92;12.75;;;;;;;;;;5067921;28;20086;-71
2021/09/12 09:21:38;;;;;;;14.43;10.90;;;;;;;;;;5063265;28;20502;-69
2021/09/12 09:24:17;;;;;;;15.90;11.30;;;;;;;;;;5069681;28;20040;-69
2021/09/12 09:26:47;;;;;;;16.83;12.10;;;;;;;;;;5064723;28;20063;-69
2021/09/12 09:29:14;;;;;;;19.60;13.63;;;;;;;;;;5068233;28;20174;-68
2021/09/12 09:31:41;;;;;;;15.00;11.20;;;;;;;;;;5066947;28;21030;-69
2021/09/12 09:34:18;;;;;;;19.77;13.07;;;;;;;;;;5064038;28;20060;-70
2021/09/12 09:36:45;;;;;;;21.73;15.05;;;;;;;;;;5062643;28;20037;-69
2021/09/12 09:39:11;;;;;;;18.77;15.07;;;;;;;;;;5055783;28;20195;-70
2021/09/12 09:41:39;;;;;;;19.30;13.73;;;;;;;;;;5055060;28;20653;-70
2021/09/12 09:44:12;;;;;;;17.05;12.13;;;;;;;;;;5057554;28;20490;-70
2021/09/12 09:46:43;;;;;;;18.52;13.40;;;;;;;;;;5058013;28;20098;-69
2021/09/12 09:49:29;;;;;;;19.27;13.68;;;;;;;;;;5057714;28;20809;-69
2021/09/12 09:52:00;;;;;;;19.92;14.18;;;;;;;;;;5055884;28;20072;-69
2021/09/12 09:54:31;;;;;;;16.13;12.90;;;;;;;;;;5056210;28;20048;-70
2021/09/12 09:56:58;;;;;;;16.00;11.10;;;;;;;;;;5055315;28;20080;-71
2021/09/12 09:59:26;;;;;;;17.85;13.35;;;;;;;;;;5059369;28;20068;-70
2021/09/12 10:01:53;;;;;;;14.90;11.23;;;;;;;;;;5055834;28;20098;-69
2021/09/12 10:04:20;;;;;;;14.55;11.13;;;;;;;;;;5055337;28;20060;-71
2021/09/12 10:06:47;;;;;;;15.10;10.93;;;;;;;;;;5055381;28;20044;-69
2021/09/12 10:09:14;;;;;;;20.38;11.82;;;;;;;;;;5055095;28;20045;-71
2021/09/12 10:11:42;;;;;;;14.05;10.73;;;;;;;;;;5056235;28;20068;-70
2021/09/12 10:14:10;;;;;;;14.57;10.40;;;;;;;;;;5056144;28;20554;-70
2021/09/12 10:16:37;;;;;;;12.85;9.70;;;;;;;;;;5055115;28;20477;-70
2021/09/12 10:19:03;;;;;;;11.35;9.40;;;;;;;;;;5057620;28;20534;-70
2021/09/12 10:21:30;;;;;;;12.07;8.48;;;;;;;;;;5055653;28;20052;-68
2021/09/12 10:24:07;;;;;;;12.57;9.45;;;;;;;;;;5054868;28;20060;-70
2021/09/12 10:26:38;;;;;;;13.57;10.23;;;;;;;;;;5055781;28;20068;-69
2021/09/12 10:29:05;;;;;;;13.57;9.30;;;;;;;;;;5057067;28;20052;-71
2021/09/12 10:31:33;;;;;;;11.52;8.88;;;;;;;;;;5056489;28;20502;-70
2021/09/12 10:34:07;;;;;;;11.32;9.07;;;;;;;;;;5055451;28;20083;-71
2021/09/12 10:36:34;;;;;;;10.32;7.65;;;;;;;;;;5054427;28;20090;-70
2021/09/12 10:39:19;;;;;;;11.77;9.57;;;;;;;;;;5054880;28;20044;-71
2021/09/12 10:42:05;;;;;;;9.35;8.32;;;;;;;;;;5054001;28;20473;-71
2021/09/12 10:44:31;;;;;;;11.57;8.55;;;;;;;;;;5054959;28;20051;-70
2021/09/12 10:47:08;;;;;;;11.07;8.43;;;;;;;;;;5056552;28;20052;-71
2021/09/12 10:49:34;;;;;;;11.95;8.30;;;;;;;;;;5057250;28;20045;-71
2021/09/12 10:52:01;;;;;;;8.75;7.20;;;;;;;;;;5054992;28;20071;-70
2021/09/12 10:54:27;;;;;;;9.23;6.82;;;;;;;;;;5054886;28;20044;-71
2021/09/12 10:57:06;;;;;;;8.95;8.05;;;;;;;;;;5055143;28;20048;-70
2021/09/12 10:59:33;;;;;;;9.45;7.80;;;;;;;;;;5054035;28;20478;-71
2021/09/12 11:02:00;;;;;;;12.68;8.55;;;;;;;;;;5060879;28;20068;-69
2021/09/12 11:04:30;;;;;;;15.48;7.32;;;;;;;;;;5060070;28;20132;-61
2021/09/12 11:07:04;;;;;;;14.75;7.90;;;;;;;;;;5058393;28;20033;-59
2021/09/12 11:09:31;;;;;;;12.50;8.18;;;;;;;;;;5052166;28;20041;-60
2021/09/12 11:11:59;;;;;;;11.40;7.95;;;;;;;;;;5052123;28;20049;-60
2021/09/12 11:14:26;;;;;;;16.67;8.60;;;;;;;;;;5060826;28;20040;-61
2021/09/12 11:16:52;;;;;;;12.35;8.20;;;;;;;;;;5065573;28;20509;-61
2021/09/12 11:19:19;;;;;;;13.98;8.10;;;;;;;;;;5060602;28;20047;-60
2021/09/12 11:21:47;;;;;;;10.85;8.20;;;;;;;;;;5056450;28;20121;-61
2021/09/12 11:24:16;;;;;;;11.38;8.68;;;;;;;;;;5057039;28;20048;-61
2021/09/12 11:27:01;;;;;;;14.85;9.00;;;;;;;;;;5057059;28;20456;-61
2021/09/12 11:29:32;;;;;;;10.60;8.35;;;;;;;;;;5053470;28;20616;-63
2021/09/12 11:32:03;;;;;;;15.00;8.18;;;;;;;;;;5064790;28;20121;-64
2021/09/12 11:34:30;;;;;;;9.23;7.60;;;;;;;;;;5060605;28;20045;-64
2021/09/12 11:36:57;;;;;;;11.98;8.13;;;;;;;;;;5057492;28;20669;-66
2021/09/12 11:39:25;;;;;;;8.30;6.60;;;;;;;;;;5063071;28;20533;-68
2021/09/12 11:41:53;;;;;;;7.38;5.47;;;;;;;;;;5062571;28;20140;-70
2021/09/12 11:44:20;;;;;;;10.48;6.45;;;;;;;;;;5051229;28;20052;-71
2021/09/12 11:46:48;;;;;;;6.70;5.32;;;;;;;;;;5054650;28;20507;-71
2021/09/12 11:49:14;;;;;;;7.68;6.50;;;;;;;;;;5054722;28;20548;-71
2021/09/12 11:51:41;;;;;;;6.38;5.38;;;;;;;;;;5054406;28;20041;-71
2021/09/12 11:54:07;;;;;;;6.05;4.85;;;;;;;;;;5054029;28;20687;-71
2021/09/12 11:56:34;;;;;;;6.78;5.70;;;;;;;;;;5050657;28;20136;-70
2021/09/12 11:59:01;;;;;;;8.02;5.60;;;;;;;;;;5054358;28;20057;-70
2021/09/12 12:01:28;;;;;;;6.68;5.53;;;;;;;;;;5062145;28;20123;-70
2021/09/12 12:03:54;;;;;;;7.25;5.55;;;;;;;;;;5060433;28;20095;-71
2021/09/12 12:06:22;;;;;;;6.78;5.50;;;;;;;;;;5055254;28;20040;-70
2021/09/12 12:09:08;;;;;;;8.85;5.82;;;;;;;;;;5053137;28;20068;-70
2021/09/12 12:11:39;;;;;;;7.72;5.95;;;;;;;;;;5052198;28;20041;-70
2021/09/12 12:14:08;;;;;;;7.32;6.15;;;;;;;;;;5055992;28;20052;-70
2021/09/12 12:16:42;;;;;;;8.15;6.50;;;;;;;;;;5056277;28;20411;-70
2021/09/12 12:19:12;;;;;;;9.57;6.95;;;;;;;;;;5056262;28;20084;-70
2021/09/12 12:21:40;;;;;;;7.80;6.88;;;;;;;;;;5056352;28;20064;-70
2021/09/12 12:24:19;;;;;;;7.88;6.72;;;;;;;;;;5055214;28;20040;-70
2021/09/12 12:26:54;;;;;;;8.38;6.30;;;;;;;;;;5052933;28;20044;-71
2021/09/12 12:29:40;;;;;;;8.27;6.18;;;;;;;;;;5054578;28;20049;-71
2021/09/12 12:32:07;;;;;;;8.13;5.80;;;;;;;;;;5067775;28;20052;-72
2021/09/12 12:34:53;;;;;;;7.88;5.00;;;;;;;;;;5056702;28;20813;-72
2021/09/12 12:37:21;;;;;;;5.78;5.07;;;;;;;;;;5056168;28;20145;-71
2021/09/12 12:40:07;;;;;;;4.95;4.35;;;;;;;;;;5058025;28;20047;-72
2021/09/12 12:42:39;;;;;;;5.10;4.57;;;;;;;;;;5065006;28;20059;-72
2021/09/12 12:45:26;;;;;;;5.82;4.70;;;;;;;;;;5055592;28;20055;-72
2021/09/12 12:47:57;;;;;;;7.25;5.22;;;;;;;;;;5054169;28;20076;-72
2021/09/12 12:50:31;;;;;;;6.15;4.75;;;;;;;;;;5053876;28;20095;-72
2021/09/12 12:55:56;;;;;;;7.00;5.45;;;;;;;;;;5066968;28;20115;-72
2021/09/12 12:58:23;;;;;;;7.38;5.75;;;;;;;;;;5064713;28;20061;-72
2021/09/12 13:00:52;;;;;;;6.65;5.55;;;;;;;;;;5063011;28;20553;-72
2021/09/12 13:03:18;;;;;;;7.75;5.55;;;;;;;;;;5056331;28;20047;-72
2021/09/12 13:05:45;;;;;;;7.22;5.55;;;;;;;;;;5056096;28;20122;-72
2021/09/12 13:08:13;;;;;;;8.27;5.30;;;;;;;;;;5058029;28;20052;-72
2021/09/12 13:10:39;;;;;;;8.65;5.78;;;;;;;;;;5060297;28;20053;-72
2021/09/12 13:13:06;;;;;;;5.68;5.07;;;;;;;;;;5059730;28;20048;-72
2021/09/12 13:15:32;;;;;;;8.57;5.55;;;;;;;;;;5059483;28;20095;-72
2021/09/12 13:17:58;;;;;;;8.13;5.03;;;;;;;;;;5056771;28;20048;-72
2021/09/12 13:20:25;;;;;;;4.68;4.03;;;;;;;;;;5071204;28;20060;-73
2021/09/12 13:22:51;;;;;;;5.07;3.92;;;;;;;;;;5059263;28;20055;-72
2021/09/12 13:25:17;;;;;;;6.80;3.70;;;;;;;;;;5059066;28;20487;-72
2021/09/12 13:27:44;;;;;;;5.97;3.55;;;;;;;;;;5059283;28;20075;-72
2021/09/12 13:30:10;;;;;;;4.60;3.65;;;;;;;;;;5059396;28;20116;-72
2021/09/12 13:32:37;;;;;;;6.63;3.60;;;;;;;;;;5054745;28;20131;-72
2021/09/12 13:35:04;;;;;;;4.93;4.10;;;;;;;;;;5058902;28;20076;-72
2021/09/12 13:37:30;;;;;;;4.90;4.28;;;;;;;;;;5058757;28;20056;-72
2021/09/12 13:39:56;;;;;;;5.40;4.13;;;;;;;;;;5061467;28;20122;-71
2021/09/12 13:42:23;;;;;;;5.00;4.20;;;;;;;;;;5069178;28;20082;-72
2021/09/12 13:44:49;;;;;;;5.57;4.03;;;;;;;;;;5056045;28;20041;-73
2021/09/12 13:47:15;;;;;;;4.20;3.40;;;;;;;;;;5057141;28;20170;-72
2021/09/12 13:49:41;;;;;;;4.95;4.20;;;;;;;;;;5068474;28;20040;-72
2021/09/12 13:52:08;;;;;;;3.95;3.05;;;;;;;;;;5062664;28;20051;-72
2021/09/12 13:54:34;;;;;;;3.35;2.92;;;;;;;;;;5058584;28;20045;-73
2021/09/12 13:57:00;;;;;;;3.85;3.20;;;;;;;;;;5058699;28;20123;-72
2021/09/12 13:59:27;;;;;;;5.28;3.70;;;;;;;;;;5056271;28;20515;-72
2021/09/12 14:01:54;;;;;;;4.53;3.75;;;;;;;;;;5058863;28;20045;-73
2021/09/12 14:04:21;;;;;;;4.97;3.95;;;;;;;;;;5058959;28;20049;-72
2021/09/12 14:06:47;;;;;;;6.03;4.30;;;;;;;;;;5058733;28;20041;-72
2021/09/12 14:09:13;;;;;;;6.63;4.38;;;;;;;;;;5059054;28;20047;-72
2021/09/12 14:11:39;;;;;;;5.07;4.28;;;;;;;;;;5054688;28;20076;-72
2021/09/12 14:14:06;;;;;;;5.57;4.30;;;;;;;;;;5070030;28;20051;-71
2021/09/12 14:16:32;;;;;;;5.18;4.25;;;;;;;;;;5058643;28;20049;-72
2021/09/12 14:18:59;;;;;;;5.68;4.78;;;;;;;;;;5058694;28;20073;-72
2021/09/12 14:21:25;;;;;;;6.57;4.35;;;;;;;;;;5058328;28;20506;-72
2021/09/12 14:23:51;;;;;;;7.68;3.90;;;;;;;;;;5055916;28;20045;-72
2021/09/12 14:26:18;;;;;;;6.63;4.10;;;;;;;;;;5056423;28;20056;-72
2021/09/12 14:28:44;;;;;;;5.80;4.22;;;;;;;;;;5058861;28;20049;-72